Nor Easter — V7HF2 — position and weather

sailwx.info

Track history (hours):
 
Tides and Currents Weather Stations Pressure Air Temp Water Temp Dewpoint Dewpoint Depression Visibility Wind Speed Wind Dir Waves Ship Positions

Nor Easter

Last reported at 2014-Sep-09 18:04 UTC. Time now 2014-Sep-16 05:03 UTC.
Position N 43°37' W 069°50'.

Length 181 m; draft 7.1 m.

Type: Ship. MMSI: 538002219.

Date/timePositionNaut miles runAvg speedWind from/ knotsBaromVisibWave heightAir tempDewpointWater temp
2014-Sep-09 18:04N 43°37' W 069°50'713.0
2014-Sep-09 17:33N 43°37' W 069°59'1010.2
2014-Sep-09 16:33N 43°40' W 070°13'0 0.1
2014-Sep-09 15:10N 43°39' W 070°13'0 0.0
2014-Sep-09 14:16N 43°39' W 070°13'0 0.0
2014-Sep-09 13:22N 43°39' W 070°13'0 0.0
2014-Sep-09 12:28N 43°39' W 070°13'0 0.0
2014-Sep-09 05:28N 43°39' W 070°13'0 0.1
2014-Sep-09 04:04N 43°39' W 070°13'0 0.0
2014-Sep-09 03:26N 43°39' W 070°13'3 0.3
2014-Sep-08 17:33N 43°38' W 070°17'1 0.0
2014-Sep-08 02:33N 43°39' W 070°16'1 1.1
2014-Sep-08 01:25N 43°39' W 070°14'0 0.0
2014-Sep-08 00:19N 43°39' W 070°14'0 0.0
2014-Sep-07 23:31N 43°39' W 070°14'0 0.0
2014-Sep-07 22:25N 43°39' W 070°14'0 0.0
2014-Sep-07 20:25N 43°39' W 070°14'0 0.0
2014-Sep-07 19:31N 43°39' W 070°14'0 0.0
2014-Sep-07 18:25N 43°39' W 070°14'0 0.2
2014-Sep-07 17:10N 43°39' W 070°14'3 5.2
2014-Sep-07 16:33N 43°37' W 070°11'1111.0
2014-Sep-07 15:32N 43°37' W 069°56'  
2014-Sep-04 07:33N 42°44' W 070°06'2813.5
2014-Sep-04 05:27N 42°30' W 070°40'1313.4
2014-Sep-04 04:31N 42°23' W 070°54'3 0.1
2014-Sep-02 05:08N 42°24' W 070°50'710.3
2014-Sep-02 04:25N 42°29' W 070°42'1213.3
2014-Sep-02 03:32N 42°34' W 070°29'1313.3
2014-Sep-02 02:33N 42°41' W 070°13'  
Track history (hours):
 
Tides and Currents Weather Stations Pressure Air Temp Water Temp Dewpoint Dewpoint Depression Visibility Wind Speed Wind Dir Waves Ship Positions

Nor Easter

Last reported at 2014-Sep-09 18:04 UTC. Time now 2014-Sep-16 05:03 UTC.
Position N 43°37' W 069°50'.

Length 181 m; draft 7.1 m.

Type: Ship. MMSI: 538002219.

Date/timePositionNaut miles runAvg speedWind from/ knotsBaromVisibWave heightAir tempDewpointWater temp
2014-Sep-09 18:04N 43°37' W 069°50'713.0
2014-Sep-09 17:33N 43°37' W 069°59'1010.2
2014-Sep-09 16:33N 43°40' W 070°13'0 0.1
2014-Sep-09 15:10N 43°39' W 070°13'0 0.0
2014-Sep-09 14:16N 43°39' W 070°13'0 0.0
2014-Sep-09 13:22N 43°39' W 070°13'0 0.0
2014-Sep-09 12:28N 43°39' W 070°13'0 0.0
2014-Sep-09 05:28N 43°39' W 070°13'0 0.1
2014-Sep-09 04:04N 43°39' W 070°13'0 0.0
2014-Sep-09 03:26N 43°39' W 070°13'3 0.3
2014-Sep-08 17:33N 43°38' W 070°17'1 0.0
2014-Sep-08 02:33N 43°39' W 070°16'1 1.1
2014-Sep-08 01:25N 43°39' W 070°14'0 0.0
2014-Sep-08 00:19N 43°39' W 070°14'0 0.0
2014-Sep-07 23:31N 43°39' W 070°14'0 0.0
2014-Sep-07 22:25N 43°39' W 070°14'0 0.0
2014-Sep-07 20:25N 43°39' W 070°14'0 0.0
2014-Sep-07 19:31N 43°39' W 070°14'0 0.0
2014-Sep-07 18:25N 43°39' W 070°14'0 0.2
2014-Sep-07 17:10N 43°39' W 070°14'3 5.2
2014-Sep-07 16:33N 43°37' W 070°11'1111.0
2014-Sep-07 15:32N 43°37' W 069°56'  
2014-Sep-04 07:33N 42°44' W 070°06'2813.5
2014-Sep-04 05:27N 42°30' W 070°40'1313.4
2014-Sep-04 04:31N 42°23' W 070°54'3 0.1
2014-Sep-02 05:08N 42°24' W 070°50'710.3
2014-Sep-02 04:25N 42°29' W 070°42'1213.3
2014-Sep-02 03:32N 42°34' W 070°29'1313.3
2014-Sep-02 02:33N 42°41' W 070°13'  

Dump ship's entire track history